Time;durP1;ratioP1;P1;durP2;ratioP2;P2;SDS_P1;SDS_P2;PMS_P1;PMS_P2;Temp;Humidity;BMP_temperature;BMP_pressure;BME280_temperature;BME280_humidity;BME280_pressure;Samples;Min_cycle;Max_cycle;Signal;HPM_P1;HPM_P2
2023/10/04 00:00:37;;;;;;;8.32;2.17;;;15.60;99.90;;;;;;5055132;28;20037;-87
2023/10/04 00:03:04;;;;;;;7.53;2.13;;;15.70;99.90;;;;;;5041117;28;20051;-88
2023/10/04 00:05:30;;;;;;;8.05;2.15;;;15.60;99.90;;;;;;5034468;28;20049;-88
2023/10/04 00:07:56;;;;;;;7.10;2.47;;;15.60;99.90;;;;;;5033699;28;20036;-87
2023/10/04 00:10:23;;;;;;;7.95;2.88;;;15.60;99.90;;;;;;5034006;28;20049;-88
2023/10/04 00:12:50;;;;;;;6.53;2.67;;;15.60;99.90;;;;;;5033536;28;20044;-87
2023/10/04 00:15:20;;;;;;;6.70;2.63;;;15.60;99.90;;;;;;5045077;28;20120;-88
2023/10/04 00:17:46;;;;;;;6.17;2.33;;;15.60;99.90;;;;;;5050031;28;20025;-88
2023/10/04 00:20:14;;;;;;;7.22;2.30;;;15.50;99.90;;;;;;5048283;28;20772;-88
2023/10/04 00:22:40;;;;;;;8.98;2.33;;;16.00;99.90;;;;;;5037163;28;20358;-88
2023/10/04 00:25:20;;;;;;;7.88;2.63;;;15.40;99.90;;;;;;5053712;28;20028;-87
2023/10/04 00:27:52;;;;;;;11.93;3.40;;;15.50;99.90;;;;;;5042511;28;20030;-86
2023/10/04 00:30:18;;;;;;;12.90;2.92;;;15.50;99.90;;;;;;5034082;28;20037;-88
2023/10/04 00:32:47;;;;;;;7.75;1.95;;;15.50;99.90;;;;;;5033396;28;20021;-88
2023/10/04 00:35:17;;;;;;;7.20;1.90;;;15.50;99.90;;;;;;5036792;28;20509;-88
2023/10/04 00:37:50;;;;;;;11.35;3.20;;;15.50;99.90;;;;;;5033575;28;20025;-87
2023/10/04 00:40:21;;;;;;;11.00;2.50;;;15.50;99.90;;;;;;5034043;28;20109;-87
2023/10/04 00:42:50;;;;;;;9.65;3.25;;;15.50;99.90;;;;;;5032663;28;20101;-87
2023/10/04 00:45:20;;;;;;;7.25;2.42;;;15.40;99.90;;;;;;5033965;28;20425;-88
2023/10/04 00:47:49;;;;;;;10.00;3.30;;;15.60;99.90;;;;;;5053266;28;20103;-87
2023/10/04 00:50:16;;;;;;;8.30;2.30;;;15.50;99.90;;;;;;5052917;28;20021;-88
2023/10/04 00:52:48;;;;;;;5.72;2.60;;;15.50;99.90;;;;;;5053178;28;20052;-88
2023/10/04 00:55:18;;;;;;;7.28;2.00;;;15.50;99.90;;;;;;5053267;28;20029;-88
2023/10/04 00:57:44;;;;;;;7.97;2.42;;;15.70;99.90;;;;;;5041883;28;20084;-88
2023/10/04 01:00:11;;;;;;;12.48;3.05;;;15.90;99.90;;;;;;5034335;28;20121;-87
2023/10/04 01:02:37;;;;;;;7.68;2.35;;;15.50;99.90;;;;;;5033729;28;20037;-87
2023/10/04 01:05:05;;;;;;;5.68;2.30;;;15.50;99.90;;;;;;5042543;28;20029;-87
2023/10/04 01:07:32;;;;;;;12.07;2.58;;;15.50;99.90;;;;;;5043172;28;20025;-87
2023/10/04 01:09:58;;;;;;;6.93;2.88;;;15.40;99.90;;;;;;5032138;28;20045;-86
2023/10/04 01:12:24;;;;;;;5.05;2.42;;;15.90;99.90;;;;;;5038761;28;20020;-87
2023/10/04 01:14:53;;;;;;;12.13;2.65;;;15.20;99.90;;;;;;5052874;28;20028;-87
2023/10/04 01:17:19;;;;;;;8.10;2.60;;;15.30;99.90;;;;;;5052375;28;20040;-85
2023/10/04 01:19:45;;;;;;;12.15;2.92;;;15.30;99.90;;;;;;5052495;28;20028;-84
2023/10/04 01:22:11;;;;;;;9.65;2.75;;;15.30;99.90;;;;;;5052955;28;20025;-87
2023/10/04 01:24:41;;;;;;;8.40;2.60;;;15.30;99.90;;;;;;5051698;28;20032;-87
2023/10/04 01:27:10;;;;;;;9.98;3.03;;;15.20;99.90;;;;;;5052529;28;20090;-87
2023/10/04 01:29:38;;;;;;;8.43;3.17;;;15.20;99.90;;;;;;5048581;28;20096;-87
2023/10/04 01:32:07;;;;;;;10.43;2.67;;;15.60;99.90;;;;;;5031679;28;20021;-87
2023/10/04 01:34:33;;;;;;;7.68;2.70;;;16.20;99.90;;;;;;5045749;28;20029;-88
2023/10/04 01:36:58;;;;;;;8.35;2.78;;;15.40;99.90;;;;;;5052289;28;20037;-87
2023/10/04 01:39:30;;;;;;;6.22;2.80;;;15.30;99.90;;;;;;5046850;28;20028;-87
2023/10/04 01:41:55;;;;;;;10.35;2.95;;;15.50;99.90;;;;;;5032714;28;20056;-87
2023/10/04 01:44:21;;;;;;;8.50;3.03;;;15.20;99.90;;;;;;5032059;28;20026;-88
2023/10/04 01:46:47;;;;;;;9.10;2.83;;;15.30;99.90;;;;;;5032532;28;20032;-87
2023/10/04 01:49:12;;;;;;;12.13;2.50;;;15.30;99.90;;;;;;5033373;28;20493;-88
2023/10/04 01:51:42;;;;;;;7.15;2.53;;;15.30;99.90;;;;;;5032417;28;20030;-89
2023/10/04 01:54:08;;;;;;;9.50;2.63;;;15.20;99.90;;;;;;5032530;28;20397;-88
2023/10/04 01:56:33;;;;;;;7.25;2.88;;;15.40;99.90;;;;;;5032442;28;20036;-88
2023/10/04 01:58:59;;;;;;;11.77;2.30;;;15.30;99.90;;;;;;5032268;28;20021;-88
2023/10/04 02:01:26;;;;;;;7.60;2.67;;;15.30;99.90;;;;;;5032987;28;20029;-87
2023/10/04 02:03:53;;;;;;;9.60;2.35;;;15.30;99.90;;;;;;5048982;28;20025;-87
2023/10/04 02:06:19;;;;;;;8.65;2.03;;;15.20;99.90;;;;;;5049358;28;20025;-88
2023/10/04 02:08:45;;;;;;;7.75;2.33;;;15.20;99.90;;;;;;5033853;28;20462;-88
2023/10/04 02:11:12;;;;;;;10.38;3.10;;;15.30;99.90;;;;;;5056334;28;20064;-88
2023/10/04 02:13:40;;;;;;;12.98;2.95;;;16.20;99.90;;;;;;5052262;28;20025;-88
2023/10/04 02:16:08;;;;;;;6.45;2.20;;;15.10;99.90;;;;;;5045664;28;20045;-89
2023/10/04 02:18:34;;;;;;;4.53;2.47;;;15.20;99.90;;;;;;5034252;28;20381;-88
2023/10/04 02:21:00;;;;;;;11.38;2.70;;;15.20;99.90;;;;;;5039458;28;20029;-87
2023/10/04 02:23:25;;;;;;;7.28;2.28;;;15.20;99.90;;;;;;5047860;28;20025;-87
2023/10/04 02:25:52;;;;;;;7.45;3.00;;;16.00;99.90;;;;;;5063245;28;20029;-87
2023/10/04 02:28:24;;;;;;;10.85;2.63;;;16.00;99.90;;;;;;5071844;28;20051;-87
2023/10/04 02:30:53;;;;;;;13.43;2.90;;;15.40;99.90;;;;;;5068561;28;20044;-87
2023/10/04 02:33:19;;;;;;;7.13;1.98;;;15.30;99.90;;;;;;5056363;28;20021;-88
2023/10/04 02:35:46;;;;;;;8.18;2.22;;;15.40;99.90;;;;;;5036472;28;20044;-88
2023/10/04 02:38:26;;;;;;;7.47;1.92;;;15.30;99.90;;;;;;5036231;28;20096;-88
2023/10/04 02:40:52;;;;;;;11.75;2.97;;;15.40;99.90;;;;;;5044479;28;20128;-87
2023/10/04 02:43:20;;;;;;;8.57;2.63;;;15.30;99.90;;;;;;5049479;28;20561;-86
2023/10/04 02:45:47;;;;;;;10.38;2.15;;;15.30;99.90;;;;;;5035620;28;20036;-86
2023/10/04 02:48:13;;;;;;;7.43;2.75;;;15.30;99.90;;;;;;5051165;28;20036;-86
2023/10/04 02:50:42;;;;;;;11.18;2.55;;;15.30;99.90;;;;;;5056506;28;20021;-86
2023/10/04 02:53:10;;;;;;;8.93;2.42;;;15.30;99.90;;;;;;5045080;28;20079;-87
2023/10/04 02:55:36;;;;;;;9.73;3.20;;;15.30;99.90;;;;;;5057024;28;20033;-86
2023/10/04 02:58:05;;;;;;;10.00;2.90;;;15.50;99.90;;;;;;5037723;28;20061;-87
2023/10/04 03:00:31;;;;;;;10.23;3.55;;;15.30;99.90;;;;;;5052427;28;20048;-87
2023/10/04 03:02:57;;;;;;;6.93;2.05;;;15.30;99.90;;;;;;5038358;28;20374;-86
2023/10/04 03:05:23;;;;;;;9.60;2.50;;;15.20;99.90;;;;;;5035711;28;20017;-87
2023/10/04 03:07:50;;;;;;;5.68;2.60;;;15.30;99.90;;;;;;5035485;28;20029;-87
2023/10/04 03:10:23;;;;;;;5.55;2.63;;;15.20;99.90;;;;;;5034945;28;20045;-87
2023/10/04 03:12:53;;;;;;;9.25;2.85;;;15.30;99.90;;;;;;5035217;28;20030;-88
2023/10/04 03:15:23;;;;;;;7.15;2.90;;;15.30;99.90;;;;;;5036396;28;20025;-87
2023/10/04 03:17:53;;;;;;;9.32;3.47;;;15.30;99.90;;;;;;5052886;28;20056;-87
2023/10/04 03:20:23;;;;;;;7.38;2.40;;;15.60;99.90;;;;;;5046672;28;20436;-88
2023/10/04 03:22:55;;;;;;;10.05;3.15;;;15.30;99.90;;;;;;5034837;28;20044;-88
2023/10/04 03:25:24;;;;;;;9.63;2.45;;;15.30;99.90;;;;;;5035769;28;20022;-89
2023/10/04 03:27:50;;;;;;;8.93;2.85;;;15.40;99.90;;;;;;5034717;28;20028;-88
2023/10/04 03:30:16;;;;;;;9.85;2.38;;;15.20;99.90;;;;;;5034195;28;20029;-87
2023/10/04 03:32:55;;;;;;;7.00;2.63;;;15.20;99.90;;;;;;5034649;28;20113;-87
2023/10/04 03:35:22;;;;;;;7.50;2.47;;;15.50;99.90;;;;;;5035532;28;20054;-87
2023/10/04 03:38:01;;;;;;;11.20;2.78;;;15.40;99.90;;;;;;5034323;28;20053;-87
2023/10/04 03:40:38;;;;;;;7.95;3.13;;;15.20;99.90;;;;;;5035092;28;20036;-88
2023/10/04 03:43:05;;;;;;;13.65;3.53;;;15.50;99.90;;;;;;5044229;28;20025;-88
2023/10/04 03:45:32;;;;;;;10.52;3.13;;;15.30;99.90;;;;;;5053890;28;20079;-88
2023/10/04 03:47:58;;;;;;;11.88;2.67;;;15.10;99.90;;;;;;5054181;28;20446;-88
2023/10/04 03:50:24;;;;;;;10.80;2.67;;;15.10;99.90;;;;;;5055263;28;20029;-88
2023/10/04 03:52:52;;;;;;;7.45;2.33;;;15.10;99.90;;;;;;5053652;28;20029;-88
2023/10/04 03:55:19;;;;;;;10.55;2.58;;;15.20;99.90;;;;;;5054588;28;20500;-88
2023/10/04 03:57:44;;;;;;;11.55;2.88;;;15.10;99.90;;;;;;5054636;28;20033;-87
2023/10/04 04:00:12;;;;;;;5.95;2.53;;;15.10;99.90;;;;;;5053995;28;20021;-87
2023/10/04 04:02:39;;;;;;;9.00;2.97;;;15.10;99.90;;;;;;5054422;28;20033;-87
2023/10/04 04:05:09;;;;;;;6.63;2.47;;;15.00;99.90;;;;;;5029901;28;20037;-88
2023/10/04 04:07:34;;;;;;;8.73;2.92;;;15.00;99.90;;;;;;5019243;28;20029;-89
2023/10/04 04:10:03;;;;;;;8.75;2.35;;;15.00;99.90;;;;;;5054019;28;20404;-88
2023/10/04 04:12:29;;;;;;;8.63;3.17;;;15.00;99.90;;;;;;5045006;28;20033;-88
2023/10/04 04:14:55;;;;;;;9.98;3.05;;;15.20;99.90;;;;;;5034299;28;20037;-88
2023/10/04 04:17:22;;;;;;;5.55;2.67;;;14.90;99.90;;;;;;5034491;28;20460;-89
2023/10/04 04:19:49;;;;;;;7.95;2.92;;;14.90;99.90;;;;;;5033230;28;20083;-88
2023/10/04 04:22:25;;;;;;;14.77;3.80;;;14.90;99.90;;;;;;5034215;28;20496;-89
2023/10/04 04:24:51;;;;;;;6.70;2.85;;;14.90;99.90;;;;;;5041388;28;20029;-88
2023/10/04 04:27:22;;;;;;;11.45;2.63;;;14.90;99.90;;;;;;5041779;28;20025;-88
2023/10/04 04:29:52;;;;;;;5.72;2.60;;;14.80;99.90;;;;;;5033914;28;20021;-85
2023/10/04 04:32:26;;;;;;;8.07;2.47;;;14.90;99.90;;;;;;5051558;28;20025;-87
2023/10/04 04:34:53;;;;;;;18.92;4.07;;;14.80;99.90;;;;;;5053000;28;20131;-87
2023/10/04 04:37:19;;;;;;;8.73;2.53;;;14.80;99.90;;;;;;5053897;28;20037;-87
2023/10/04 04:39:45;;;;;;;11.82;2.85;;;14.70;99.90;;;;;;5040012;28;20517;-88
2023/10/04 04:42:12;;;;;;;11.00;2.55;;;14.80;99.90;;;;;;5032492;28;20069;-87
2023/10/04 04:44:42;;;;;;;6.85;2.55;;;14.60;99.90;;;;;;5050556;28;20376;-87
2023/10/04 04:47:10;;;;;;;9.73;3.65;;;14.60;99.90;;;;;;5059820;28;20052;-87
2023/10/04 04:49:37;;;;;;;12.35;3.53;;;14.60;99.90;;;;;;5043826;28;20052;-87
2023/10/04 04:52:05;;;;;;;7.85;3.53;;;14.70;99.90;;;;;;5053512;28;20027;-87
2023/10/04 04:54:32;;;;;;;7.90;2.58;;;14.50;99.90;;;;;;5052880;28;20075;-87
2023/10/04 04:56:59;;;;;;;11.57;3.55;;;14.40;99.90;;;;;;5053188;28;20461;-87
2023/10/04 04:59:24;;;;;;;6.30;3.33;;;14.40;99.90;;;;;;5053351;28;20557;-87
2023/10/04 05:01:52;;;;;;;8.82;3.22;;;14.30;99.90;;;;;;5053123;28;20104;-88
2023/10/04 05:04:18;;;;;;;10.73;3.50;;;14.50;99.90;;;;;;5053530;28;20029;-87
2023/10/04 05:06:44;;;;;;;9.93;3.28;;;14.30;99.90;;;;;;5053390;28;20358;-89
2023/10/04 05:09:10;;;;;;;20.15;3.80;;;14.40;99.90;;;;;;5052474;28;20036;-87
2023/10/04 05:11:37;;;;;;;9.68;3.50;;;14.30;99.90;;;;;;5057084;28;20041;-87
2023/10/04 05:14:06;;;;;;;9.15;3.17;;;14.50;99.90;;;;;;5041363;28;20052;-87
2023/10/04 05:16:32;;;;;;;8.05;3.03;;;14.40;99.90;;;;;;5035303;28;20069;-89
2023/10/04 05:18:58;;;;;;;8.30;3.30;;;14.30;99.90;;;;;;5040136;28;20075;-88
2023/10/04 05:21:24;;;;;;;10.63;3.83;;;14.40;99.90;;;;;;5068310;28;20033;-90
2023/10/04 05:23:50;;;;;;;11.85;3.28;;;14.30;99.90;;;;;;5072929;28;20021;-87
2023/10/04 05:26:16;;;;;;;12.77;3.33;;;14.30;99.90;;;;;;5073004;28;20040;-88
2023/10/04 05:28:42;;;;;;;11.13;4.25;;;14.20;99.90;;;;;;5074665;28;20081;-89
2023/10/04 05:31:08;;;;;;;11.55;3.88;;;14.10;99.90;;;;;;5075457;28;20028;-88
2023/10/04 05:33:35;;;;;;;15.00;4.10;;;14.20;99.90;;;;;;5064244;28;20014;-88
2023/10/04 05:36:02;;;;;;;13.95;3.70;;;14.10;99.90;;;;;;5056021;28;20033;-88
2023/10/04 05:38:28;;;;;;;10.57;3.47;;;14.10;99.90;;;;;;5053445;28;20044;-89
2023/10/04 05:40:54;;;;;;;10.15;3.92;;;14.10;99.90;;;;;;5054497;28;20031;-89
2023/10/04 05:43:21;;;;;;;7.57;3.40;;;14.10;99.90;;;;;;5062693;28;20075;-89
2023/10/04 05:45:47;;;;;;;9.95;3.90;;;14.10;99.90;;;;;;5069351;28;20025;-88
2023/10/04 05:48:14;;;;;;;16.25;4.47;;;14.10;99.90;;;;;;5063584;28;20025;-87
2023/10/04 05:50:40;;;;;;;15.23;4.35;;;14.20;99.90;;;;;;5054156;28;20032;-90
2023/10/04 05:53:07;;;;;;;12.60;4.43;;;14.20;99.90;;;;;;5051122;28;20036;-91
2023/10/04 05:55:37;;;;;;;12.40;4.10;;;14.30;99.90;;;;;;5052385;28;20091;-90
2023/10/04 05:58:12;;;;;;;15.65;4.20;;;14.10;99.90;;;;;;5052492;28;20029;-89
2023/10/04 06:00:41;;;;;;;17.08;5.03;;;14.10;99.90;;;;;;5046663;28;20031;-89
2023/10/04 06:03:11;;;;;;;13.85;5.03;;;14.20;99.90;;;;;;5032815;28;20025;-88
2023/10/04 06:05:38;;;;;;;16.17;3.92;;;14.20;99.90;;;;;;5032471;28;20068;-88
2023/10/04 06:08:15;;;;;;;9.63;3.55;;;14.20;99.90;;;;;;5033015;28;20559;-89
2023/10/04 06:10:45;;;;;;;14.77;4.15;;;14.20;99.90;;;;;;5032860;28;20054;-90
2023/10/04 06:13:15;;;;;;;24.80;5.03;;;14.20;99.90;;;;;;5045957;28;20091;-90
2023/10/04 06:15:42;;;;;;;13.68;4.25;;;14.20;99.90;;;;;;5032787;28;20053;-90
2023/10/04 06:18:08;;;;;;;16.80;4.63;;;14.20;99.90;;;;;;5033604;28;20045;-89
2023/10/04 06:20:36;;;;;;;15.73;5.07;;;14.20;99.90;;;;;;5032664;28;20083;-89
2023/10/04 06:23:06;;;;;;;16.67;4.68;;;14.20;99.90;;;;;;5033087;28;20049;-90
2023/10/04 06:25:34;;;;;;;20.40;4.20;;;14.30;99.90;;;;;;5033250;28;20021;-90
2023/10/04 06:28:03;;;;;;;14.27;4.53;;;14.30;99.90;;;;;;5033120;28;20029;-90
2023/10/04 06:30:33;;;;;;;16.60;4.65;;;14.20;99.90;;;;;;5032909;28;20051;-88
2023/10/04 06:33:01;;;;;;;14.97;3.83;;;14.20;99.90;;;;;;5033084;28;20140;-89
2023/10/04 06:35:27;;;;;;;13.90;4.07;;;14.20;99.90;;;;;;5039755;28;20075;-90
2023/10/04 06:37:55;;;;;;;14.15;4.68;;;14.20;99.90;;;;;;5051693;28;20524;-89
2023/10/04 06:40:21;;;;;;;15.02;5.10;;;14.20;99.90;;;;;;5052433;28;20029;-87
2023/10/04 06:42:48;;;;;;;21.65;5.60;;;14.40;99.90;;;;;;5054879;28;20108;-88
2023/10/04 06:45:16;;;;;;;14.32;4.18;;;14.20;99.90;;;;;;5032081;28;20025;-89
2023/10/04 06:47:44;;;;;;;11.07;4.45;;;14.30;99.90;;;;;;5032445;28;20096;-89
2023/10/04 06:50:13;;;;;;;17.55;4.32;;;14.40;99.90;;;;;;5031612;28;20037;-88
2023/10/04 06:52:49;;;;;;;17.15;4.65;;;14.30;99.90;;;;;;5031408;28;20025;-88
2023/10/04 06:55:16;;;;;;;15.52;4.90;;;14.30;99.90;;;;;;5036600;28;20030;-88
2023/10/04 06:57:43;;;;;;;17.60;5.15;;;14.30;99.90;;;;;;5049955;28;20451;-87
2023/10/04 07:00:17;;;;;;;16.40;4.60;;;14.30;99.90;;;;;;5051714;28;20045;-88
2023/10/04 07:02:46;;;;;;;22.38;5.13;;;14.30;99.90;;;;;;5051244;28;20053;-88
2023/10/04 07:05:14;;;;;;;11.70;4.18;;;14.60;99.90;;;;;;5054880;28;20400;-89
2023/10/04 07:07:41;;;;;;;20.20;4.65;;;14.40;99.90;;;;;;5055736;28;20031;-87
2023/10/04 07:10:08;;;;;;;12.70;4.43;;;14.40;99.90;;;;;;5054922;28;20056;-88
2023/10/04 07:12:36;;;;;;;11.18;4.38;;;14.50;99.90;;;;;;5055067;28;20558;-87
2023/10/04 07:15:04;;;;;;;13.85;4.45;;;14.50;99.90;;;;;;5038114;28;20030;-88
2023/10/04 07:17:30;;;;;;;16.50;3.95;;;14.50;99.90;;;;;;5043390;28;20025;-88
2023/10/04 07:19:59;;;;;;;14.48;5.00;;;14.50;99.90;;;;;;5055386;28;20033;-88
2023/10/04 07:22:29;;;;;;;22.27;4.93;;;14.50;99.90;;;;;;5055287;28;20032;-89
2023/10/04 07:24:58;;;;;;;;;;;14.60;99.90;;;;;;5055395;28;20135;-85
2023/10/04 07:27:24;;;;;;;12.70;3.90;;;14.60;99.90;;;;;;5055424;28;20038;-87
2023/10/04 07:29:50;;;;;;;11.35;3.95;;;14.60;99.90;;;;;;5039122;28;20129;-87
2023/10/04 07:32:16;;;;;;;17.90;4.20;;;14.60;99.90;;;;;;5034842;28;20026;-86
2023/10/04 07:34:42;;;;;;;17.10;4.05;;;15.40;99.90;;;;;;5044709;28;20373;-87
2023/10/04 07:37:08;;;;;;;17.10;4.78;;;15.30;99.90;;;;;;5041194;28;20030;-84
2023/10/04 07:39:35;;;;;;;10.68;4.20;;;15.10;99.90;;;;;;5049782;28;20025;-85
2023/10/04 07:42:02;;;;;;;13.80;4.70;;;14.70;99.90;;;;;;5054173;28;20032;-86
2023/10/04 07:44:30;;;;;;;11.63;4.28;;;14.70;99.90;;;;;;5054077;28;20075;-84
2023/10/04 07:47:01;;;;;;;16.55;4.50;;;14.80;99.90;;;;;;5045875;28;20148;-86
2023/10/04 07:49:28;;;;;;;17.50;4.40;;;14.80;99.90;;;;;;5033089;28;20045;-84
2023/10/04 07:51:55;;;;;;;9.50;3.90;;;14.80;99.90;;;;;;5031788;28;20032;-85
2023/10/04 07:54:22;;;;;;;19.55;4.30;;;15.00;99.90;;;;;;5033148;28;20052;-86
2023/10/04 07:56:51;;;;;;;14.75;3.97;;;15.30;99.90;;;;;;5030001;28;20033;-89
2023/10/04 07:59:17;;;;;;;16.77;4.90;;;14.90;99.90;;;;;;5035012;28;20026;-85
2023/10/04 08:01:45;;;;;;;16.27;4.00;;;14.80;99.90;;;;;;5032355;28;20030;-86
2023/10/04 08:04:13;;;;;;;14.45;4.78;;;15.50;99.90;;;;;;5031582;28;20026;-85
2023/10/04 08:06:39;;;;;;;13.82;4.20;;;15.80;99.90;;;;;;5032541;28;20026;-84
2023/10/04 08:09:05;;;;;;;9.00;4.50;;;15.00;99.90;;;;;;5032290;28;20033;-82
2023/10/04 08:11:33;;;;;;;18.13;4.88;;;15.10;99.90;;;;;;5031635;28;20041;-83
2023/10/04 08:14:07;;;;;;;11.68;4.00;;;15.20;99.90;;;;;;5031543;28;20031;-85
2023/10/04 08:16:36;;;;;;;14.90;5.18;;;15.60;99.90;;;;;;5034648;28;20087;-91
2023/10/04 08:19:04;;;;;;;11.48;4.28;;;15.20;99.90;;;;;;5024804;28;20033;-89
2023/10/04 08:21:30;;;;;;;20.85;5.65;;;15.30;99.90;;;;;;5024762;28;20041;-90
2023/10/04 08:23:57;;;;;;;15.27;4.25;;;15.40;99.90;;;;;;5025735;28;20044;-90
2023/10/04 08:26:23;;;;;;;12.18;4.13;;;15.30;99.90;;;;;;5035995;28;20025;-89
2023/10/04 08:28:49;;;;;;;8.88;4.40;;;15.40;99.90;;;;;;5035857;28;20026;-90
2023/10/04 08:31:16;;;;;;;13.55;4.30;;;15.30;99.90;;;;;;5037917;28;20021;-91
2023/10/04 08:33:43;;;;;;;12.60;4.50;;;15.40;99.90;;;;;;5043971;28;20017;-89
2023/10/04 08:36:18;;;;;;;10.32;5.18;;;15.30;99.90;;;;;;5043654;28;20056;-89
2023/10/04 08:38:45;;;;;;;15.50;5.10;;;15.60;99.90;;;;;;5050724;28;20083;-88
2023/10/04 08:41:11;;;;;;;15.68;4.40;;;15.60;99.90;;;;;;5043642;28;20064;-89
2023/10/04 08:43:37;;;;;;;16.83;5.18;;;16.10;99.90;;;;;;5043572;28;20029;-89
2023/10/04 08:46:07;;;;;;;13.98;4.75;;;15.50;99.90;;;;;;5048906;28;20084;-90
2023/10/04 08:48:33;;;;;;;10.30;4.43;;;15.50;99.90;;;;;;5042379;28;20032;-90
2023/10/04 08:51:38;;;;;;;15.10;4.95;;;15.60;99.90;;;;;;5035834;28;20068;-91
2023/10/04 08:54:30;;;;;;;12.60;4.60;;;15.60;99.90;;;;;;5033839;28;20024;-91
2023/10/04 08:56:58;;;;;;;14.40;4.82;;;15.60;99.90;;;;;;5032455;28;20448;-91
2023/10/04 08:59:25;;;;;;;16.60;5.13;;;15.60;99.90;;;;;;5038416;28;20485;-92
2023/10/04 09:01:52;;;;;;;13.95;4.50;;;15.60;99.90;;;;;;5035931;28;20049;-91
2023/10/04 09:04:32;;;;;;;10.88;4.68;;;15.60;99.90;;;;;;5034559;28;20045;-90
2023/10/04 09:07:19;;;;;;;14.18;4.68;;;15.70;99.90;;;;;;5050506;28;20461;-91
2023/10/04 09:09:46;;;;;;;14.45;4.53;;;15.70;99.90;;;;;;5052561;28;20122;-91
2023/10/04 09:12:26;;;;;;;19.17;5.88;;;16.00;99.90;;;;;;5053684;28;20472;-90
2023/10/04 09:14:52;;;;;;;16.25;4.68;;;15.70;99.90;;;;;;5013940;28;20038;-90
2023/10/04 09:17:19;;;;;;;16.25;5.07;;;16.10;99.90;;;;;;5014100;28;20034;-89
2023/10/04 09:19:47;;;;;;;10.25;4.70;;;16.60;99.90;;;;;;5014255;28;20080;-88
2023/10/04 09:22:17;;;;;;;18.55;5.75;;;14.80;99.90;;;;;;5005573;28;20121;-91
2023/10/04 09:25:12;;;;;;;14.50;5.40;;;16.30;99.90;;;;;;5013848;28;20038;-89
2023/10/04 09:27:38;;;;;;;16.30;5.00;;;15.80;99.90;;;;;;5016468;28;20182;-92
2023/10/04 09:30:24;;;;;;;12.88;4.90;;;16.20;99.90;;;;;;5052815;28;20499;-91
2023/10/04 09:32:54;;;;;;;18.88;6.07;;;15.80;99.90;;;;;;5035820;28;20048;-89
2023/10/04 09:35:35;;;;;;;17.20;5.30;;;15.90;99.90;;;;;;5053980;28;20028;-90
2023/10/04 09:38:31;;;;;;;14.88;5.75;;;15.90;99.90;;;;;;5035555;28;20045;-90
2023/10/04 09:40:59;;;;;;;21.30;5.63;;;15.90;99.90;;;;;;5034437;28;20032;-89
2023/10/04 09:43:44;;;;;;;12.82;3.78;;;16.10;99.90;;;;;;5033239;28;20025;-90
2023/10/04 09:46:10;;;;;;;17.30;4.95;;;17.00;99.90;;;;;;5033025;28;20127;-89
2023/10/04 09:48:37;;;;;;;11.02;4.43;;;16.70;99.90;;;;;;5033450;28;20144;-89
2023/10/04 09:51:21;;;;;;;22.33;5.97;;;16.10;99.90;;;;;;5042580;28;20032;-90
2023/10/04 09:54:01;;;;;;;13.98;3.90;;;16.10;99.90;;;;;;5033325;28;20512;-90
2023/10/04 09:56:28;;;;;;;14.30;4.00;;;16.10;99.90;;;;;;5042442;22;20057;-90
2023/10/04 09:58:55;;;;;;;9.30;4.35;;;16.20;99.90;;;;;;5032680;28;20435;-92
2023/10/04 10:01:25;;;;;;;12.77;4.32;;;16.20;99.90;;;;;;5032798;28;20021;-90
2023/10/04 10:03:56;;;;;;;14.00;4.18;;;17.10;99.90;;;;;;5032361;28;20025;-88
2023/10/04 10:06:23;;;;;;;17.58;5.15;;;16.30;99.90;;;;;;5033982;28;20148;-88
2023/10/04 10:08:53;;;;;;;16.48;4.22;;;16.30;99.90;;;;;;5015897;28;20090;-90
2023/10/04 10:11:20;;;;;;;9.63;3.58;;;16.30;99.90;;;;;;5042952;28;20037;-90
2023/10/04 10:16:33;;;;;;;10.88;4.40;;;16.40;99.90;;;;;;5033275;28;20087;-89
2023/10/04 10:19:00;;;;;;;12.35;4.75;;;17.00;99.90;;;;;;5039928;28;20108;-90
2023/10/04 10:22:02;;;;;;;13.20;3.97;;;17.40;99.90;;;;;;5053297;28;20025;-89
2023/10/04 10:24:45;;;;;;;11.48;4.18;;;16.30;99.90;;;;;;5053046;28;20017;-89
2023/10/04 10:27:15;;;;;;;11.55;4.22;;;16.70;99.90;;;;;;5052776;28;20048;-89
2023/10/04 10:29:53;;;;;;;13.52;4.32;;;16.40;99.90;;;;;;5052253;28;20025;-89
2023/10/04 10:32:22;;;;;;;20.88;4.53;;;16.30;99.90;;;;;;5052779;28;20029;-89
2023/10/04 10:35:08;;;;;;;15.45;4.85;;;17.00;99.90;;;;;;5059715;28;20033;-89
2023/10/04 10:37:38;;;;;;;10.80;3.65;;;16.40;99.90;;;;;;5042702;28;20067;-90
2023/10/04 10:40:09;;;;;;;10.90;3.92;;;17.40;99.90;;;;;;5059631;28;20028;-90
2023/10/04 10:43:12;;;;;;;16.38;3.67;;;16.50;99.90;;;;;;5056280;28;20025;-91
2023/10/04 10:45:37;;;;;;;15.20;4.90;;;16.50;99.90;;;;;;5056207;28;20025;-89
2023/10/04 10:48:08;;;;;;;10.32;4.05;;;16.50;99.90;;;;;;5056108;28;20032;-92
2023/10/04 10:50:43;;;;;;;17.00;4.38;;;16.40;99.90;;;;;;5052599;28;20121;-90
2023/10/04 10:53:10;;;;;;;14.25;4.85;;;16.50;99.90;;;;;;5055927;28;20100;-89
2023/10/04 10:55:40;;;;;;;14.23;4.80;;;16.40;99.90;;;;;;5043214;28;20049;-90
2023/10/04 10:58:13;;;;;;;18.02;4.97;;;16.50;99.90;;;;;;5056219;28;20066;-90
2023/10/04 11:00:40;;;;;;;16.40;4.80;;;16.60;99.90;;;;;;5056409;28;20077;-89
2023/10/04 11:03:10;;;;;;;10.73;4.53;;;16.50;99.90;;;;;;5056403;28;20032;-90
2023/10/04 11:05:36;;;;;;;12.37;4.77;;;16.60;99.90;;;;;;5058200;28;20602;-89
2023/10/04 11:08:06;;;;;;;16.55;4.32;;;16.80;99.90;;;;;;5057508;28;20307;-90
2023/10/04 11:10:38;;;;;;;16.05;4.78;;;16.70;99.90;;;;;;5058336;28;20108;-89
2023/10/04 11:13:08;;;;;;;13.43;4.00;;;16.70;99.90;;;;;;5058537;28;20523;-90
2023/10/04 11:15:34;;;;;;;10.82;4.57;;;16.80;99.90;;;;;;5056453;28;20068;-89
2023/10/04 11:18:00;;;;;;;13.63;5.55;;;16.80;99.90;;;;;;5056380;28;20045;-88
2023/10/04 11:20:28;;;;;;;17.60;4.60;;;16.80;99.90;;;;;;5057410;28;20048;-89
2023/10/04 11:22:55;;;;;;;17.60;4.93;;;16.80;99.90;;;;;;5054955;28;20033;-90
2023/10/04 11:25:20;;;;;;;7.13;3.70;;;16.90;99.90;;;;;;5055996;28;20040;-90
2023/10/04 11:28:07;;;;;;;10.02;3.90;;;16.80;99.90;;;;;;5055959;28;20029;-91
2023/10/04 11:30:33;;;;;;;16.02;4.70;;;16.80;99.90;;;;;;5057693;28;20056;-90
2023/10/04 11:33:08;;;;;;;10.65;4.10;;;16.90;99.90;;;;;;5060638;28;20048;-90
2023/10/04 11:35:34;;;;;;;8.98;3.88;;;17.70;99.90;;;;;;5062614;28;20045;-90
2023/10/04 11:38:05;;;;;;;12.77;4.60;;;18.00;99.90;;;;;;5076593;28;20052;-89
2023/10/04 11:40:48;;;;;;;16.20;4.20;;;17.80;99.90;;;;;;5079100;28;20029;-89
2023/10/04 11:43:14;;;;;;;10.65;4.22;;;17.00;99.90;;;;;;5078766;28;20031;-91
2023/10/04 11:45:40;;;;;;;9.77;3.53;;;17.00;99.90;;;;;;5078686;28;20047;-89
2023/10/04 11:48:08;;;;;;;10.45;3.47;;;17.00;99.90;;;;;;5062436;28;20040;-89
2023/10/04 11:51:01;;;;;;;16.75;3.70;;;17.00;99.90;;;;;;5057228;28;20103;-90
2023/10/04 11:53:49;;;;;;;9.02;2.67;;;17.20;99.90;;;;;;5034767;28;20087;-90
2023/10/04 11:56:16;;;;;;;10.35;3.17;;;17.10;99.90;;;;;;5034778;28;20055;-89
2023/10/04 11:58:49;;;;;;;10.77;3.53;;;17.10;99.90;;;;;;5040369;28;20168;-88
2023/10/04 12:01:21;;;;;;;9.45;3.03;;;17.10;99.90;;;;;;5055270;28;20066;-89
2023/10/04 12:03:56;;;;;;;11.57;3.60;;;17.20;99.90;;;;;;5053280;28;20480;-90
2023/10/04 12:06:32;;;;;;;11.70;3.38;;;17.10;99.90;;;;;;5051025;28;20025;-89
2023/10/04 12:08:58;;;;;;;9.30;3.30;;;17.10;99.90;;;;;;5051483;28;20559;-88
2023/10/04 12:11:52;;;;;;;11.45;3.72;;;17.20;99.90;;;;;;5050493;28;20029;-91
2023/10/04 12:14:35;;;;;;;13.00;3.45;;;16.70;99.90;;;;;;5052185;28;20052;-90
2023/10/04 12:17:13;;;;;;;9.10;3.05;;;17.10;99.90;;;;;;5053155;28;20064;-88
2023/10/04 12:19:57;;;;;;;10.07;3.50;;;17.50;99.90;;;;;;5051384;28;20025;-87
2023/10/04 12:22:24;;;;;;;14.38;3.60;;;18.20;99.90;;;;;;5034148;28;20030;-84
2023/10/04 12:24:51;;;;;;;9.32;2.85;;;17.10;99.90;;;;;;5051686;28;20017;-87
2023/10/04 12:27:27;;;;;;;10.60;2.85;;;17.20;99.90;;;;;;5051642;28;20136;-87
2023/10/04 12:29:52;;;;;;;9.40;3.42;;;17.10;99.90;;;;;;5054269;28;20029;-90
2023/10/04 12:32:19;;;;;;;9.13;3.60;;;17.20;99.90;;;;;;5053313;28;20471;-86
2023/10/04 12:34:47;;;;;;;9.82;3.20;;;17.10;99.90;;;;;;5053256;28;20025;-91
2023/10/04 12:37:13;;;;;;;12.32;3.42;;;17.10;99.90;;;;;;5055328;28;20092;-93
2023/10/04 12:39:38;;;;;;;13.95;3.72;;;17.30;99.90;;;;;;5052411;28;20021;-91
2023/10/04 12:42:04;;;;;;;10.90;3.85;;;17.10;99.90;;;;;;5054186;28;20053;-91
2023/10/04 12:44:30;;;;;;;8.27;2.92;;;17.10;99.90;;;;;;5054366;28;20526;-92
2023/10/04 12:46:58;;;;;;;9.88;3.42;;;17.10;99.90;;;;;;5054326;28;20487;-90
2023/10/04 12:49:31;;;;;;;9.77;2.65;;;17.00;99.90;;;;;;5055198;28;20036;-90
2023/10/04 12:51:58;;;;;;;10.15;2.53;;;17.00;99.90;;;;;;5052230;28;20029;-90
2023/10/04 12:54:25;;;;;;;6.30;1.77;;;17.00;99.90;;;;;;5052509;28;20025;-90